sensor_id;sensor_type;location;lat;lon;timestamp;pressure;altitude;pressure_sealevel;temperature;humidity
76156;BME280;64906;51.290;7.348;2023-08-01T01:36:44;96967.59;;;21.32;58.02
76156;BME280;64906;51.290;7.348;2023-08-01T01:39:09;96998.41;;;21.38;58.26
76156;BME280;64906;51.290;7.348;2023-08-01T01:41:35;97017.81;;;21.33;58.25
76156;BME280;64906;51.290;7.348;2023-08-01T01:44:00;97000.56;;;21.32;57.78
76156;BME280;64906;51.290;7.348;2023-08-01T01:46:25;97005.69;;;21.33;57.95
76156;BME280;64906;51.290;7.348;2023-08-01T01:48:50;96993.69;;;21.38;57.68
76156;BME280;64906;51.290;7.348;2023-08-01T01:51:16;96984.75;;;21.29;57.95
76156;BME280;64906;51.290;7.348;2023-08-01T01:53:41;96983.28;;;21.31;58.01
76156;BME280;64906;51.290;7.348;2023-08-01T01:56:07;96972.53;;;21.39;57.59
76156;BME280;64906;51.290;7.348;2023-08-01T01:58:32;96971.81;;;21.29;58.19
76156;BME280;64906;51.290;7.348;2023-08-01T02:00:57;96974.00;;;21.24;58.48
76156;BME280;64906;51.290;7.348;2023-08-01T02:03:23;96976.06;;;21.27;57.99
76156;BME280;64906;51.290;7.348;2023-08-01T02:05:48;96978.38;;;21.37;58.17
76156;BME280;64906;51.290;7.348;2023-08-01T02:08:13;96972.41;;;21.35;57.75
76156;BME280;64906;51.290;7.348;2023-08-01T02:10:39;96967.59;;;21.32;57.89
76156;BME280;64906;51.290;7.348;2023-08-01T02:13:04;96956.41;;;21.37;57.74
76156;BME280;64906;51.290;7.348;2023-08-01T02:15:29;96962.13;;;21.32;57.81
76156;BME280;64906;51.290;7.348;2023-08-01T02:17:55;96965.34;;;21.34;57.87
76156;BME280;64906;51.290;7.348;2023-08-01T02:20:21;96969.88;;;21.30;57.45
76156;BME280;64906;51.290;7.348;2023-08-01T02:22:46;96963.28;;;21.31;57.49
76156;BME280;64906;51.290;7.348;2023-08-01T02:25:11;96966.94;;;21.35;57.83
76156;BME280;64906;51.290;7.348;2023-08-01T02:27:37;96976.31;;;21.34;58.23
76156;BME280;64906;51.290;7.348;2023-08-01T02:30:02;96974.13;;;21.27;58.03
76156;BME280;64906;51.290;7.348;2023-08-01T02:32:28;96972.19;;;21.40;57.59
76156;BME280;64906;51.290;7.348;2023-08-01T02:34:53;96969.66;;;21.35;57.42
76156;BME280;64906;51.290;7.348;2023-08-01T02:37:18;96959.38;;;21.32;57.55
76156;BME280;64906;51.290;7.348;2023-08-01T02:39:44;96957.53;;;21.36;57.49
76156;BME280;64906;51.290;7.348;2023-08-01T02:42:09;96962.00;;;21.28;57.71
76156;BME280;64906;51.290;7.348;2023-08-01T02:44:34;96963.16;;;21.27;58.10
76156;BME280;64906;51.290;7.348;2023-08-01T02:46:59;96971.81;;;21.29;57.87
76156;BME280;64906;51.290;7.348;2023-08-01T02:49:25;96970.81;;;21.34;57.69
76156;BME280;64906;51.290;7.348;2023-08-01T02:51:50;96969.66;;;21.35;57.60
76156;BME280;64906;51.290;7.348;2023-08-01T02:54:16;96970.81;;;21.34;57.79
76156;BME280;64906;51.290;7.348;2023-08-01T02:56:41;96966.13;;;21.34;57.70
76156;BME280;64906;51.290;7.348;2023-08-01T02:59:09;96967.38;;;21.37;57.62
76156;BME280;64906;51.290;7.348;2023-08-01T03:01:35;96967.94;;;21.30;57.84
76156;BME280;64906;51.290;7.348;2023-08-01T03:04:02;96979.28;;;21.41;57.18
76156;BME280;64906;51.290;7.348;2023-08-01T03:06:29;96981.47;;;21.36;57.68
76156;BME280;64906;51.290;7.348;2023-08-01T03:08:54;96987.28;;;21.34;57.63
76156;BME280;64906;51.290;7.348;2023-08-01T03:11:20;96985.53;;;21.29;57.39
76156;BME280;64906;51.290;7.348;2023-08-01T03:13:45;96996.09;;;21.27;57.69
76156;BME280;64906;51.290;7.348;2023-08-01T03:16:11;96993.47;;;21.31;57.29
76156;BME280;64906;51.290;7.348;2023-08-01T03:18:37;96998.41;;;21.38;57.33
76156;BME280;64906;51.290;7.348;2023-08-01T03:21:02;97001.22;;;21.29;57.19
76156;BME280;64906;51.290;7.348;2023-08-01T03:23:29;97003.63;;;21.30;57.08
76156;BME280;64906;51.290;7.348;2023-08-01T03:25:54;97001.69;;;21.31;57.38
76156;BME280;64906;51.290;7.348;2023-08-01T03:28:19;97003.97;;;21.29;57.20
76156;BME280;64906;51.290;7.348;2023-08-01T03:30:45;97009.47;;;21.29;57.23
76156;BME280;64906;51.290;7.348;2023-08-01T03:33:10;97012.91;;;21.26;57.42
76156;BME280;64906;51.290;7.348;2023-08-01T03:35:35;97007.06;;;21.27;57.29
76156;BME280;64906;51.290;7.348;2023-08-01T03:38:01;97003.97;;;21.29;57.50
76156;BME280;64906;51.290;7.348;2023-08-01T03:40:26;97004.66;;;21.26;57.37
76156;BME280;64906;51.290;7.348;2023-08-01T03:42:51;97016.06;;;21.28;57.50
76156;BME280;64906;51.290;7.348;2023-08-01T03:45:17;97018.47;;;21.29;57.56
76156;BME280;64906;51.290;7.348;2023-08-01T03:47:42;97014.50;;;21.27;57.45
76156;BME280;64906;51.290;7.348;2023-08-01T03:50:07;97013.22;;;21.24;57.51
76156;BME280;64906;51.290;7.348;2023-08-01T03:52:33;97024.19;;;21.24;57.69
76156;BME280;64906;51.290;7.348;2023-08-01T03:54:58;97023.53;;;21.27;57.68
76156;BME280;64906;51.290;7.348;2023-08-01T03:57:23;97020.78;;;21.27;57.67
76156;BME280;64906;51.290;7.348;2023-08-01T03:59:49;97023.88;;;21.26;57.52
76156;BME280;64906;51.290;7.348;2023-08-01T04:02:14;97018.81;;;21.28;57.20
76156;BME280;64906;51.290;7.348;2023-08-01T04:04:39;97019.28;;;21.30;57.01
76156;BME280;64906;51.290;7.348;2023-08-01T04:07:05;97041.13;;;21.26;57.55
76156;BME280;64906;51.290;7.348;2023-08-01T04:09:30;97030.81;;;21.23;57.50
76156;BME280;64906;51.290;7.348;2023-08-01T04:11:55;97033.69;;;21.27;57.13
76156;BME280;64906;51.290;7.348;2023-08-01T04:14:20;97038.03;;;21.28;57.46
76156;BME280;64906;51.290;7.348;2023-08-01T04:16:46;97029.56;;;21.21;57.61
76156;BME280;64906;51.290;7.348;2023-08-01T04:19:11;97051.19;;;21.22;57.64
76156;BME280;64906;51.290;7.348;2023-08-01T04:21:36;97050.16;;;21.27;57.00
76156;BME280;64906;51.290;7.348;2023-08-01T04:24:02;97061.16;;;21.27;57.46
76156;BME280;64906;51.290;7.348;2023-08-01T04:26:27;97060.94;;;21.32;57.02
76156;BME280;64906;51.290;7.348;2023-08-01T04:28:52;97065.47;;;21.28;56.96
76156;BME280;64906;51.290;7.348;2023-08-01T04:31:17;97057.59;;;21.26;57.18
76156;BME280;64906;51.290;7.348;2023-08-01T04:33:43;97071.38;;;21.18;57.23
76156;BME280;64906;51.290;7.348;2023-08-01T04:36:08;97065.25;;;21.21;57.02
76156;BME280;64906;51.290;7.348;2023-08-01T04:38:34;97065.69;;;21.23;57.41
76156;BME280;64906;51.290;7.348;2023-08-01T04:40:59;97067.78;;;21.26;57.25
76156;BME280;64906;51.290;7.348;2023-08-01T04:43:25;97064.09;;;21.22;57.25
76156;BME280;64906;51.290;7.348;2023-08-01T04:45:50;97066.72;;;21.18;57.54
76156;BME280;64906;51.290;7.348;2023-08-01T04:48:16;97065.91;;;21.18;57.63
76156;BME280;64906;51.290;7.348;2023-08-01T04:50:41;97061.34;;;21.22;57.23
76156;BME280;64906;51.290;7.348;2023-08-01T04:53:06;97058.81;;;21.17;57.14
76156;BME280;64906;51.290;7.348;2023-08-01T04:55:32;97065.03;;;21.26;56.93
76156;BME280;64906;51.290;7.348;2023-08-01T04:57:57;97063.28;;;21.21;57.35
76156;BME280;64906;51.290;7.348;2023-08-01T05:00:22;97060.53;;;21.21;57.46
76156;BME280;64906;51.290;7.348;2023-08-01T05:02:48;97058.47;;;21.18;57.23
76156;BME280;64906;51.290;7.348;2023-08-01T05:05:13;97066.50;;;21.23;56.89
76156;BME280;64906;51.290;7.348;2023-08-01T05:07:40;97068.34;;;21.19;57.76
76156;BME280;64906;51.290;7.348;2023-08-01T05:10:06;97057.34;;;21.19;57.58
76156;BME280;64906;51.290;7.348;2023-08-01T05:12:32;97075.41;;;21.20;57.42
76156;BME280;64906;51.290;7.348;2023-08-01T05:14:57;97076.31;;;21.24;57.69
76156;BME280;64906;51.290;7.348;2023-08-01T05:17:22;97075.56;;;21.24;57.23
76156;BME280;64906;51.290;7.348;2023-08-01T05:19:47;97082.72;;;21.16;57.60
76156;BME280;64906;51.290;7.348;2023-08-01T05:22:13;97073.16;;;21.22;57.29
76156;BME280;64906;51.290;7.348;2023-08-01T05:24:38;97077.34;;;21.20;57.71
76156;BME280;64906;51.290;7.348;2023-08-01T05:27:04;97087.22;;;21.21;57.24
76156;BME280;64906;51.290;7.348;2023-08-01T05:29:29;97080.22;;;21.23;57.25
76156;BME280;64906;51.290;7.348;2023-08-01T05:31:54;97075.41;;;21.20;57.35
76156;BME280;64906;51.290;7.348;2023-08-01T05:34:20;97074.59;;;21.20;57.52
76156;BME280;64906;51.290;7.348;2023-08-01T05:36:45;97077.69;;;21.18;57.46
76156;BME280;64906;51.290;7.348;2023-08-01T05:39:10;97078.50;;;21.19;57.64
76156;BME280;64906;51.290;7.348;2023-08-01T05:41:36;97084.34;;;21.17;57.51
76156;BME280;64906;51.290;7.348;2023-08-01T05:44:02;97085.13;;;21.18;57.42
76156;BME280;64906;51.290;7.348;2023-08-01T05:46:27;97086.72;;;21.19;57.46
76156;BME280;64906;51.290;7.348;2023-08-01T05:48:52;97102.53;;;21.22;57.36
76156;BME280;64906;51.290;7.348;2023-08-01T05:51:18;97106.41;;;21.21;57.07
76156;BME280;64906;51.290;7.348;2023-08-01T05:53:43;97097.25;;;21.17;57.37
76156;BME280;64906;51.290;7.348;2023-08-01T05:56:08;97107.19;;;21.21;56.95
76156;BME280;64906;51.290;7.348;2023-08-01T05:58:33;97110.63;;;21.18;57.02
76156;BME280;64906;51.290;7.348;2023-08-01T06:00:59;97114.75;;;21.24;56.97
76156;BME280;64906;51.290;7.348;2023-08-01T06:03:24;97110.06;;;21.25;57.29
76156;BME280;64906;51.290;7.348;2023-08-01T06:05:50;97120.91;;;21.21;57.57
76156;BME280;64906;51.290;7.348;2023-08-01T06:08:15;97124.13;;;21.23;56.88
76156;BME280;64906;51.290;7.348;2023-08-01T06:10:41;97108.91;;;21.14;57.14
76156;BME280;64906;51.290;7.348;2023-08-01T06:13:07;97122.75;;;21.17;57.47
76156;BME280;64906;51.290;7.348;2023-08-01T06:15:32;97123.09;;;21.16;57.22
76156;BME280;64906;51.290;7.348;2023-08-01T06:17:57;97111.97;;;21.12;57.88
76156;BME280;64906;51.290;7.348;2023-08-01T06:20:23;97116.66;;;21.12;58.08
76156;BME280;64906;51.290;7.348;2023-08-01T06:22:48;97111.63;;;21.14;58.49
76156;BME280;64906;51.290;7.348;2023-08-01T06:25:14;97114.38;;;21.14;58.20
76156;BME280;64906;51.290;7.348;2023-08-01T06:27:39;97123.63;;;21.09;58.69
76156;BME280;64906;51.290;7.348;2023-08-01T06:30:05;97117.47;;;21.12;58.52
76156;BME280;64906;51.290;7.348;2023-08-01T06:32:31;97122.47;;;21.10;58.74
76156;BME280;64906;51.290;7.348;2023-08-01T06:34:56;97120.53;;;21.11;59.05
76156;BME280;64906;51.290;7.348;2023-08-01T06:37:21;97122.34;;;21.07;59.01
76156;BME280;64906;51.290;7.348;2023-08-01T06:39:47;97126.72;;;21.08;59.11
76156;BME280;64906;51.290;7.348;2023-08-01T06:42:12;97128.66;;;21.07;59.06
76156;BME280;64906;51.290;7.348;2023-08-01T06:44:38;97118.94;;;21.10;58.94
76156;BME280;64906;51.290;7.348;2023-08-01T06:47:03;97125.91;;;21.07;59.20
76156;BME280;64906;51.290;7.348;2023-08-01T06:49:29;97121.66;;;21.10;58.83
76156;BME280;64906;51.290;7.348;2023-08-01T06:51:54;97122.81;;;21.09;58.81
76156;BME280;64906;51.290;7.348;2023-08-01T06:54:19;97132.84;;;21.05;59.29
76156;BME280;64906;51.290;7.348;2023-08-01T06:56:44;97127.06;;;21.06;59.31
76156;BME280;64906;51.290;7.348;2023-08-01T06:59:13;97136.25;;;21.02;59.34
76156;BME280;64906;51.290;7.348;2023-08-01T07:01:40;97131.59;;;21.02;59.41
76156;BME280;64906;51.290;7.348;2023-08-01T07:04:05;97139.00;;;21.02;59.26
76156;BME280;64906;51.290;7.348;2023-08-01T07:06:31;97132.59;;;20.98;59.39
76156;BME280;64906;51.290;7.348;2023-08-01T07:08:56;97131.13;;;21.00;59.72
76156;BME280;64906;51.290;7.348;2023-08-01T07:11:23;97138.66;;;21.03;59.41
76156;BME280;64906;51.290;7.348;2023-08-01T07:13:48;97135.59;;;21.05;59.67
76156;BME280;64906;51.290;7.348;2023-08-01T07:16:13;97141.06;;;21.05;59.52
76156;BME280;64906;51.290;7.348;2023-08-01T07:18:39;97146.56;;;21.05;59.44
76156;BME280;64906;51.290;7.348;2023-08-01T07:21:05;97138.81;;;21.07;59.54
76156;BME280;64906;51.290;7.348;2023-08-01T07:23:31;97137.00;;;21.11;59.37
76156;BME280;64906;51.290;7.348;2023-08-01T07:25:56;97147.84;;;21.07;59.23
76156;BME280;64906;51.290;7.348;2023-08-01T07:28:22;97142.22;;;21.04;59.47
76156;BME280;64906;51.290;7.348;2023-08-01T07:30:47;97133.66;;;21.05;59.02
76156;BME280;64906;51.290;7.348;2023-08-01T07:33:12;97145.66;;;21.01;59.11
76156;BME280;64906;51.290;7.348;2023-08-01T07:35:38;97143.38;;;21.03;59.27
76156;BME280;64906;51.290;7.348;2023-08-01T07:38:03;97153.19;;;21.04;59.34
76156;BME280;64906;51.290;7.348;2023-08-01T07:40:28;97151.59;;;21.03;59.06
76156;BME280;64906;51.290;7.348;2023-08-01T07:42:54;97154.78;;;21.05;58.96
76156;BME280;64906;51.290;7.348;2023-08-01T07:45:19;97154.78;;;21.05;59.59
76156;BME280;64906;51.290;7.348;2023-08-01T07:47:45;97163.97;;;21.09;59.28
76156;BME280;64906;51.290;7.348;2023-08-01T07:50:10;97155.88;;;21.12;58.98
76156;BME280;64906;51.290;7.348;2023-08-01T07:52:36;97161.50;;;21.16;59.19
76156;BME280;64906;51.290;7.348;2023-08-01T07:55:01;97161.50;;;21.16;59.16
76156;BME280;64906;51.290;7.348;2023-08-01T07:57:26;97160.22;;;21.13;59.31
76156;BME280;64906;51.290;7.348;2023-08-01T07:59:52;97168.59;;;21.17;59.09
76156;BME280;64906;51.290;7.348;2023-08-01T08:02:17;97168.38;;;21.22;59.10
76156;BME280;64906;51.290;7.348;2023-08-01T08:04:42;97164.16;;;21.24;58.83
76156;BME280;64906;51.290;7.348;2023-08-01T08:07:07;97164.75;;;21.30;59.21
76156;BME280;64906;51.290;7.348;2023-08-01T08:09:33;97171.75;;;21.27;59.07
76156;BME280;64906;51.290;7.348;2023-08-01T08:11:58;97171.59;;;21.24;59.35
76156;BME280;64906;51.290;7.348;2023-08-01T08:14:23;97173.19;;;21.25;58.99
76156;BME280;64906;51.290;7.348;2023-08-01T08:16:49;97179.28;;;21.30;59.09
76156;BME280;64906;51.290;7.348;2023-08-01T08:19:15;97175.53;;;21.35;58.99
76156;BME280;64906;51.290;7.348;2023-08-01T08:21:40;97176.47;;;21.39;58.74
76156;BME280;64906;51.290;7.348;2023-08-01T08:24:05;97182.06;;;21.43;58.71
76156;BME280;64906;51.290;7.348;2023-08-01T08:26:31;97176.47;;;21.39;58.86
76156;BME280;64906;51.290;7.348;2023-08-01T08:28:59;97177.72;;;21.42;58.80
76156;BME280;64906;51.290;7.348;2023-08-01T08:31:24;97185.97;;;21.42;58.69
76156;BME280;64906;51.290;7.348;2023-08-01T08:33:49;97194.69;;;21.44;59.31
76156;BME280;64906;51.290;7.348;2023-08-01T08:36:15;97184.03;;;21.42;60.02
76156;BME280;64906;51.290;7.348;2023-08-01T08:38:40;97193.41;;;21.41;60.15
76156;BME280;64906;51.290;7.348;2023-08-01T08:41:10;97197.09;;;21.45;59.98
76156;BME280;64906;51.290;7.348;2023-08-01T08:43:39;97183.84;;;21.47;60.32
76156;BME280;64906;51.290;7.348;2023-08-01T08:46:05;97188.44;;;21.55;59.83
76156;BME280;64906;51.290;7.348;2023-08-01T08:48:31;97184.06;;;21.54;59.17
76156;BME280;64906;51.290;7.348;2023-08-01T08:50:58;97184.75;;;21.51;59.83
76156;BME280;64906;51.290;7.348;2023-08-01T08:53:25;97185.56;;;21.52;60.33
76156;BME280;64906;51.290;7.348;2023-08-01T08:55:51;97181.66;;;21.53;59.58
76156;BME280;64906;51.290;7.348;2023-08-01T08:58:16;97184.53;;;21.56;58.97
76156;BME280;64906;51.290;7.348;2023-08-01T09:00:41;97193.25;;;21.58;59.12
76156;BME280;64906;51.290;7.348;2023-08-01T09:03:07;97197.25;;;21.61;58.78
76156;BME280;64906;51.290;7.348;2023-08-01T09:05:49;97181.78;;;21.56;58.80
76156;BME280;64906;51.290;7.348;2023-08-01T09:08:18;97189.69;;;21.58;59.06
76156;BME280;64906;51.290;7.348;2023-08-01T09:10:44;97190.25;;;21.51;58.96
76156;BME280;64906;51.290;7.348;2023-08-01T09:13:09;97201.09;;;21.48;59.22
76156;BME280;64906;51.290;7.348;2023-08-01T09:15:35;97195.72;;;21.51;59.33
76156;BME280;64906;51.290;7.348;2023-08-01T09:18:06;97201.69;;;21.53;59.01
76156;BME280;64906;51.290;7.348;2023-08-01T09:20:40;97210.41;;;21.55;58.95
76156;BME280;64906;51.290;7.348;2023-08-01T09:23:08;97193.03;;;21.63;58.91
76156;BME280;64906;51.290;7.348;2023-08-01T09:25:34;97203.69;;;21.65;58.58
76156;BME280;64906;51.290;7.348;2023-08-01T09:28:00;97211.66;;;21.58;59.04
76156;BME280;64906;51.290;7.348;2023-08-01T09:30:26;97207.31;;;21.57;59.18
76156;BME280;64906;51.290;7.348;2023-08-01T09:32:54;97200.66;;;21.58;58.83
76156;BME280;64906;51.290;7.348;2023-08-01T09:35:19;97212.69;;;21.53;59.71
76156;BME280;64906;51.290;7.348;2023-08-01T09:37:46;97221.59;;;21.50;60.51
76156;BME280;64906;51.290;7.348;2023-08-01T09:40:13;97209.94;;;21.53;59.91
76156;BME280;64906;51.290;7.348;2023-08-01T09:42:44;97210.06;;;21.57;59.87
76156;BME280;64906;51.290;7.348;2023-08-01T09:45:13;97201.47;;;21.58;59.40
76156;BME280;64906;51.290;7.348;2023-08-01T09:47:40;97208.56;;;21.59;59.35
76156;BME280;64906;51.290;7.348;2023-08-01T09:50:05;97201.34;;;21.55;59.04
76156;BME280;64906;51.290;7.348;2023-08-01T09:52:31;97205.25;;;21.54;59.32
76156;BME280;64906;51.290;7.348;2023-08-01T09:54:56;97207.66;;;21.55;59.26
76156;BME280;64906;51.290;7.348;2023-08-01T09:57:22;97203.28;;;21.54;59.60
76156;BME280;64906;51.290;7.348;2023-08-01T09:59:48;97202.94;;;21.56;59.33
76156;BME280;64906;51.290;7.348;2023-08-01T10:02:15;97200.53;;;21.54;59.11
76156;BME280;64906;51.290;7.348;2023-08-01T10:04:42;97197.59;;;21.59;59.30
76156;BME280;64906;51.290;7.348;2023-08-01T10:07:11;97190.63;;;21.62;58.98
76156;BME280;64906;51.290;7.348;2023-08-01T10:09:37;97194.97;;;21.63;58.75
76156;BME280;64906;51.290;7.348;2023-08-01T10:12:04;97193.84;;;21.64;58.54
76156;BME280;64906;51.290;7.348;2023-08-01T10:14:32;97207.78;;;21.59;59.43
76156;BME280;64906;51.290;7.348;2023-08-01T10:16:57;97201.97;;;21.60;60.20
76156;BME280;64906;51.290;7.348;2023-08-01T10:19:23;97193.03;;;21.63;59.88
76156;BME280;64906;51.290;7.348;2023-08-01T10:21:50;97192.91;;;21.60;59.57
76156;BME280;64906;51.290;7.348;2023-08-01T10:24:16;97212.72;;;21.65;60.32
76156;BME280;64906;51.290;7.348;2023-08-01T10:26:45;97219.94;;;21.70;59.47
76156;BME280;64906;51.290;7.348;2023-08-01T10:29:11;97210.22;;;21.72;59.13
76156;BME280;64906;51.290;7.348;2023-08-01T10:31:36;97209.09;;;21.73;59.53
76156;BME280;64906;51.290;7.348;2023-08-01T10:34:12;97207.81;;;21.71;59.91
76156;BME280;64906;51.290;7.348;2023-08-01T10:36:38;97206.69;;;21.72;59.16
76156;BME280;64906;51.290;7.348;2023-08-01T10:39:03;97210.13;;;21.69;60.29
76156;BME280;64906;51.290;7.348;2023-08-01T10:41:36;97208.44;;;21.76;59.14
76156;BME280;64906;51.290;7.348;2023-08-01T10:46:57;97215.38;;;21.74;58.76
76156;BME280;64906;51.290;7.348;2023-08-01T10:49:42;97218.47;;;21.72;59.02
76156;BME280;64906;51.290;7.348;2023-08-01T10:52:16;97218.13;;;21.74;59.67
76156;BME280;64906;51.290;7.348;2023-08-01T10:54:43;97214.75;;;21.77;58.97
76156;BME280;64906;51.290;7.348;2023-08-01T10:57:08;97212.25;;;21.84;58.77
76156;BME280;64906;51.290;7.348;2023-08-01T10:59:40;97216.59;;;21.85;58.38
76156;BME280;64906;51.290;7.348;2023-08-01T11:02:07;97210.97;;;21.81;58.63
76156;BME280;64906;51.290;7.348;2023-08-01T11:04:32;97208.81;;;21.87;58.86
76156;BME280;64906;51.290;7.348;2023-08-01T11:06:57;97207.56;;;21.84;58.52
76156;BME280;64906;51.290;7.348;2023-08-01T11:09:24;97215.47;;;21.86;58.67
76156;BME280;64906;51.290;7.348;2023-08-01T11:11:52;97209.63;;;21.87;58.69
76156;BME280;64906;51.290;7.348;2023-08-01T11:14:22;97209.34;;;21.80;58.93
76156;BME280;64906;51.290;7.348;2023-08-01T11:16:48;97211.50;;;21.75;59.58
76156;BME280;64906;51.290;7.348;2023-08-01T11:19:27;97217.00;;;21.75;59.71
76156;BME280;64906;51.290;7.348;2023-08-01T11:21:53;97214.59;;;21.73;60.06
76156;BME280;64906;51.290;7.348;2023-08-01T11:24:21;97232.53;;;21.71;59.95
76156;BME280;64906;51.290;7.348;2023-08-01T11:26:49;97241.31;;;21.64;60.18
76156;BME280;64906;51.290;7.348;2023-08-01T11:29:15;97230.00;;;21.66;60.05
76156;BME280;64906;51.290;7.348;2023-08-01T11:31:41;97257.78;;;21.64;60.43
76156;BME280;64906;51.290;7.348;2023-08-01T11:34:11;97250.25;;;21.61;60.96
76156;BME280;64906;51.290;7.348;2023-08-01T11:36:36;97251.03;;;21.62;61.38
76156;BME280;64906;51.290;7.348;2023-08-01T11:39:04;97251.38;;;21.60;61.42
76156;BME280;64906;51.290;7.348;2023-08-01T11:41:30;97253.78;;;21.62;61.01
76156;BME280;64906;51.290;7.348;2023-08-01T11:43:55;97249.22;;;21.66;60.75
76156;BME280;64906;51.290;7.348;2023-08-01T11:46:31;97244.66;;;21.70;60.30
76156;BME280;64906;51.290;7.348;2023-08-01T11:48:58;97235.06;;;21.76;59.76
76156;BME280;64906;51.290;7.348;2023-08-01T11:51:23;97250.78;;;21.75;59.58
76156;BME280;64906;51.290;7.348;2023-08-01T11:54:00;97241.19;;;21.81;59.30
76156;BME280;64906;51.290;7.348;2023-08-01T11:56:25;97247.59;;;21.85;59.19
76156;BME280;64906;51.290;7.348;2023-08-01T11:58:51;97245.53;;;21.82;59.71
76156;BME280;64906;51.290;7.348;2023-08-01T12:01:16;97246.50;;;21.86;59.43
76156;BME280;64906;51.290;7.348;2023-08-01T12:06:08;97251.63;;;21.88;59.50
76156;BME280;64906;51.290;7.348;2023-08-01T12:08:34;97254.59;;;21.83;59.71
76156;BME280;64906;51.290;7.348;2023-08-01T12:10:59;97266.84;;;21.85;59.85
76156;BME280;64906;51.290;7.348;2023-08-01T12:13:25;97280.78;;;21.80;60.00
76156;BME280;64906;51.290;7.348;2023-08-01T12:15:53;97295.47;;;21.84;59.49
76156;BME280;64906;51.290;7.348;2023-08-01T12:18:26;97310.00;;;21.85;60.08
76156;BME280;64906;51.290;7.348;2023-08-01T12:20:52;97304.19;;;21.86;59.65
76156;BME280;64906;51.290;7.348;2023-08-01T12:23:18;97318.25;;;21.85;60.26
76156;BME280;64906;51.290;7.348;2023-08-01T12:25:43;97316.28;;;21.85;60.65
76156;BME280;64906;51.290;7.348;2023-08-01T12:28:09;97322.13;;;21.84;60.67
76156;BME280;64906;51.290;7.348;2023-08-01T12:30:34;97316.84;;;21.79;60.79
76156;BME280;64906;51.290;7.348;2023-08-01T12:33:00;97330.13;;;21.77;60.32
76156;BME280;64906;51.290;7.348;2023-08-01T12:35:28;97318.13;;;21.81;59.51
76156;BME280;64906;51.290;7.348;2023-08-01T12:37:53;97315.06;;;21.74;59.11
76156;BME280;64906;51.290;7.348;2023-08-01T12:40:19;97316.06;;;21.78;59.08
76156;BME280;64906;51.290;7.348;2023-08-01T12:42:46;97317.16;;;21.77;59.13
76156;BME280;64906;51.290;7.348;2023-08-01T12:45:11;97321.22;;;21.80;58.81
76156;BME280;64906;51.290;7.348;2023-08-01T12:47:36;97316.06;;;21.78;58.71
76156;BME280;64906;51.290;7.348;2023-08-01T12:50:02;97326.34;;;21.81;58.43
76156;BME280;64906;51.290;7.348;2023-08-01T12:52:27;97316.09;;;21.90;58.38
76156;BME280;64906;51.290;7.348;2023-08-01T12:54:52;97316.28;;;21.85;58.02
76156;BME280;64906;51.290;7.348;2023-08-01T12:57:18;97317.09;;;21.86;58.40
76156;BME280;64906;51.290;7.348;2023-08-01T12:59:43;97317.44;;;21.84;58.40
76156;BME280;64906;51.290;7.348;2023-08-01T13:02:09;97312.09;;;21.88;58.31
76156;BME280;64906;51.290;7.348;2023-08-01T13:04:34;97325.13;;;21.91;57.78
76156;BME280;64906;51.290;7.348;2023-08-01T13:07:00;97318.06;;;21.90;57.77
76156;BME280;64906;51.290;7.348;2023-08-01T13:09:25;97315.31;;;21.90;57.66
76156;BME280;64906;51.290;7.348;2023-08-01T13:11:51;97315.69;;;22.00;57.32
76156;BME280;64906;51.290;7.348;2023-08-01T13:14:16;97320.13;;;21.93;57.36
76156;BME280;64906;51.290;7.348;2023-08-01T13:16:42;97313.00;;;21.92;57.67
76156;BME280;64906;51.290;7.348;2023-08-01T13:19:07;97322.41;;;21.91;57.57
76156;BME280;64906;51.290;7.348;2023-08-01T13:21:33;97315.31;;;21.90;57.79
76156;BME280;64906;51.290;7.348;2023-08-01T13:24:01;97305.91;;;21.91;57.57
76156;BME280;64906;51.290;7.348;2023-08-01T13:26:33;97314.16;;;21.91;57.82
76156;BME280;64906;51.290;7.348;2023-08-01T13:28:59;97320.78;;;21.90;57.48
76156;BME280;64906;51.290;7.348;2023-08-01T13:31:25;97315.63;;;21.88;57.84
76156;BME280;64906;51.290;7.348;2023-08-01T13:33:51;97315.75;;;21.92;57.63
76156;BME280;64906;51.290;7.348;2023-08-01T13:36:19;97312.91;;;21.88;57.56
76156;BME280;64906;51.290;7.348;2023-08-01T13:38:44;97321.59;;;21.90;57.59
76156;BME280;64906;51.290;7.348;2023-08-01T13:41:10;97311.94;;;21.84;57.33
76156;BME280;64906;51.290;7.348;2023-08-01T13:43:35;97322.25;;;21.87;57.49
76156;BME280;64906;51.290;7.348;2023-08-01T13:46:01;97320.66;;;21.86;57.26
76156;BME280;64906;51.290;7.348;2023-08-01T13:48:26;97313.09;;;21.83;57.36
76156;BME280;64906;51.290;7.348;2023-08-01T13:50:51;97321.44;;;21.87;57.48
76156;BME280;64906;51.290;7.348;2023-08-01T13:53:18;97317.38;;;21.93;56.94
76156;BME280;64906;51.290;7.348;2023-08-01T13:55:43;97310.25;;;21.92;57.28
76156;BME280;64906;51.290;7.348;2023-08-01T13:58:08;97307.41;;;21.88;57.21
76156;BME280;64906;51.290;7.348;2023-08-01T14:00:34;97306.19;;;21.98;56.69
76156;BME280;64906;51.290;7.348;2023-08-01T14:02:59;97308.09;;;21.97;56.96
76156;BME280;64906;51.290;7.348;2023-08-01T14:05:25;97308.78;;;21.94;57.15
76156;BME280;64906;51.290;7.348;2023-08-01T14:07:51;97309.25;;;21.96;56.79
76156;BME280;64906;51.290;7.348;2023-08-01T14:10:17;97309.69;;;21.98;56.60
76156;BME280;64906;51.290;7.348;2023-08-01T14:12:42;97307.97;;;21.94;56.73
76156;BME280;64906;51.290;7.348;2023-08-01T14:15:08;97301.44;;;21.86;57.16
76156;BME280;64906;51.290;7.348;2023-08-01T14:17:34;97321.44;;;21.87;56.91
76156;BME280;64906;51.290;7.348;2023-08-01T14:19:59;97321.00;;;21.85;56.85
76156;BME280;64906;51.290;7.348;2023-08-01T14:22:25;97305.19;;;21.82;56.95
76156;BME280;64906;51.290;7.348;2023-08-01T14:24:50;97323.88;;;21.88;57.35
76156;BME280;64906;51.290;7.348;2023-08-01T14:27:15;97330.28;;;21.92;57.05
76156;BME280;64906;51.290;7.348;2023-08-01T14:29:40;97328.84;;;21.95;57.08
76156;BME280;64906;51.290;7.348;2023-08-01T14:32:06;97323.09;;;22.00;56.94
76156;BME280;64906;51.290;7.348;2023-08-01T14:34:31;97315.53;;;21.97;56.41